Weed Heights, Nevada
Current Conditions -  °F | °C
As of 11:35 PM on Sunday 21 Dec 2014 (Local Time) from KMEV Reporting Station
Clear Clear  
Wind Chill: 30°   Ceiling: Unl
Heat Index: 36°   Visibility: 10mi
Dew Point: 32°   Wind: 7mph
Humidity: 87%   Direction: 210°SSW
Pressure: 30.34"   Gusts: NA
Location:  38.8785°N, 119.096°W
Report Text: KMEV 220735Z AUTO 21006KT 10SM CLR 02/00 A3034 RMK AO2
Loading
Personal Weather Stations






























Interactive Weather Map New forecast layout! Learn more

10-Day Weather Forecast

Advertisements
Track Severe Weather on mobile